Ephraim, Utah
Current Conditions -  °F | °C
As of 10:15 PM on Monday 22 Dec 2014 (Local Time) from KPUC Reporting Station
Light Snow Light Snow  
Wind Chill: 23°   Ceiling: 2700
Heat Index: 32°   Visibility: 7mi
Dew Point: 24°   Wind: 13mph
Humidity: 73%   Direction: 350°N
Pressure: 30.02"   Gusts: NA
Location:  39.36°N, 111.59°W
Report Text: KPUC 230515Z AUTO 35011KT 7SM -SN OVC027 00/M04 A3002 RMK AO2 PK WND 34026/0455 SNB0457 P0000 T00001044
Loading
Personal Weather Stations






























Interactive Weather Map New forecast layout! Learn more

10-Day Weather Forecast

Advertisements
Track Severe Weather on mobile